Aasele, Sweden

3:11 AM CEST on October 22, 2014 (GMT +0200)
Lycksele | Change Station
CLOSE
Current Station
Airport
Location: LYCKSELE,
Elevation: 702 ft
Nearby Weather Stations

Elev 702 ft 64.55 °N, 18.72 °E | Updated 21 minutes ago

Overcast
Overcast
27 °F
Feels Like 18 °F
N
9
Wind Variable Wind from East

Today
High -- | Low -- °F
--% Chance of Precip.
Yesterday
High -- | Low -- °F
Precip. -- in
8:01 AM 5:07 PM
Waning Crescent, 4% visible
Pressure 30.06 in
Visibility 6.2 miles
Clouds Overcast 2100 ft
Windchill 18 °F
Dew Point 19 °F
Humidity 74%
Rainfall 0.00 in
Snow Depth Not available.
UV 0 out of 12
Pollen Not available.
Air Quality Not available.
Flu Activity Not available.
METAR ESNL 220050Z AUTO 10008KT 9999 OVC021/// M03/M07 Q1018

More Conditions Fewer Conditions

Pressure 30.06 in
Visibility 6.2 miles
Clouds Overcast 2100 ft
Windchill 18 °F
Dew Point 19 °F
Humidity 74%
Rainfall 0.00 in
Snow Depth Not available.
UV 0 out of 12
Pollen Not available.
Air Quality Not available.
Flu Activity Not available.
METAR ESNL 220050Z AUTO 10008KT 9999 OVC021/// M03/M07 Q1018

More Conditions Fewer Conditions

10-Day Weather Forecast

Almanac

Astronomy

Oct. 22, 2014 Rise Set
Actual Time 8:01 AM CEST 5:07 PM CEST
Civil Twilight 7:11 AM CEST 5:57 PM CEST
Nautical Twilight 6:15 AM CEST 6:52 PM CEST
Astronomical Twilight 5:20 AM CEST 7:48 PM CEST
Moon 5:55 AM CEST 4:47 PM CEST
Length of Visible Light 10h 45m
Length of Day
9h 05m
Tomorrow will be 6m 31s shorter.
Waning Crescent, 4% of the Moon is Illuminated
Oct 21
Waning Crescent
Oct 23
New
Oct 30
First Quarter
Nov 6
Full
Nov 14
Last Quarter

Yesterday's Extremes

Country Highs Country Lows

Community

WunderPhotos

Upload Photos

1,763,841 photos uploaded!

Nearby

Snow Depth

Not available.

Earthquake Activity

City Distance Mag. Time & Date
No recent earthquake activity has been reported nearby.
Minimum magnitude displayed is 2.5.

Coastal Water Temperatures

Place Temperature
No Stations Reporting

Nearby Weather Stations